Time;durP1;ratioP1;P1;durP2;ratioP2;P2;SDS_P1;SDS_P2;PMS_P1;PMS_P2;Temp;Humidity;BMP_temperature;BMP_pressure;BME280_temperature;BME280_humidity;BME280_pressure;Samples;Min_cycle;Max_cycle;Signal;HPM_P1;HPM_P2
2022/11/12 00:00:25;;;;;;;;;;;;;;;;;;5053422;28;1942;-47
2022/11/12 00:03:10;;;;;;;;;;;;;;;;;;5052897;28;2005;-48
2022/11/12 00:05:56;;;;;;;;;;;;;;;;;;5052755;28;2017;-50
2022/11/12 00:08:41;;;;;;;;;;;;;;;;;;5052748;28;2092;-48
2022/11/12 00:11:27;;;;;;;;;;;;;;;;;;5053030;28;2098;-49
2022/11/12 00:14:12;;;;;;;;;;;;;;;;;;5052861;28;2149;-49
2022/11/12 00:16:58;;;;;;;;;;;;;;;;;;5053225;28;1862;-46
2022/11/12 00:19:44;;;;;;;;;;;;;;;;;;5052466;28;1945;-46
2022/11/12 00:22:29;;;;;;;;;;;;;;;;;;5052743;28;2075;-50
2022/11/12 00:25:15;;;;;;;;;;;;;;;;;;5052368;28;2114;-47
2022/11/12 00:28:02;;;;;;;;;;;;;;;;;;5052495;28;1954;-49
2022/11/12 00:30:48;;;;;;;;;;;;;;;;;;5052304;28;2094;-50
2022/11/12 00:33:37;;;;;;;;;;;;;;;;;;5052717;28;1966;-48
2022/11/12 00:36:23;;;;;;;;;;;;;;;;;;5052289;28;2116;-50
2022/11/12 00:39:08;;;;;;;;;;;;;;;;;;5052225;28;1981;-47
2022/11/12 00:41:54;;;;;;;;;;;;;;;;;;5051971;28;1967;-48
2022/11/12 00:44:42;;;;;;;;;;;;;;;;;;5038357;28;1936;-46
2022/11/12 00:47:30;;;;;;;;;;;;;;;;;;5032467;28;2002;-51
2022/11/12 00:50:16;;;;;;;;;;;;;;;;;;5031823;28;2031;-49
2022/11/12 00:53:02;;;;;;;;;;;;;;;;;;5031720;28;1947;-45
2022/11/12 00:55:48;;;;;;;;;;;;;;;;;;5031819;28;2086;-52
2022/11/12 00:58:34;;;;;;;;;;;;;;;;;;5031986;28;1959;-48
2022/11/12 01:01:20;;;;;;;;;;;;;;;;;;5031852;28;1906;-48
2022/11/12 01:04:06;;;;;;;;;;;;;;;;;;5032091;28;2035;-49
2022/11/12 01:06:52;;;;;;;;;;;;;;;;;;5031763;28;1759;-48
2022/11/12 01:09:38;;;;;;;;;;;;;;;;;;5031622;28;1912;-51
2022/11/12 01:12:24;;;;;;;;;;;;;;;;;;5031561;28;1836;-49
2022/11/12 01:15:10;;;;;;;;;;;;;;;;;;5031524;28;1876;-48
2022/11/12 01:17:56;;;;;;;;;;;;;;;;;;5031563;28;2015;-48
2022/11/12 01:20:42;;;;;;;;;;;;;;;;;;5031441;28;1851;-49
2022/11/12 01:23:31;;;;;;;;;;;;;;;;;;5031791;28;2114;-48
2022/11/12 01:26:18;;;;;;;;;;;;;;;;;;5031525;28;1902;-48
2022/11/12 01:29:05;;;;;;;;;;;;;;;;;;5031350;28;2150;-50
2022/11/12 01:31:50;;;;;;;;;;;;;;;;;;5031462;28;2005;-48
2022/11/12 01:34:36;;;;;;;;;;;;;;;;;;5031536;28;1943;-52
2022/11/12 01:37:22;;;;;;;;;;;;;;;;;;5031248;28;1805;-50
2022/11/12 01:40:08;;;;;;;;;;;;;;;;;;5031610;28;1891;-48
2022/11/12 01:42:54;;;;;;;;;;;;;;;;;;5031297;28;1931;-47
2022/11/12 01:45:45;;;;;;;;;;;;;;;;;;5031193;28;2155;-46
2022/11/12 01:48:35;;;;;;;;;;;;;;;;;;5031970;28;1978;-50
2022/11/12 01:51:22;;;;;;;;;;;;;;;;;;5044333;28;2067;-49
2022/11/12 01:54:09;;;;;;;;;;;;;;;;;;5031085;28;1933;-49
2022/11/12 01:56:56;;;;;;;;;;;;;;;;;;5030811;28;1957;-48
2022/11/12 01:59:44;;;;;;;;;;;;;;;;;;5030986;28;1929;-48
2022/11/12 02:02:31;;;;;;;;;;;;;;;;;;5031212;28;1932;-50
2022/11/12 02:05:17;;;;;;;;;;;;;;;;;;5035093;28;2000;-47
2022/11/12 02:08:05;;;;;;;;;;;;;;;;;;5034929;28;2005;-48
2022/11/12 02:10:51;;;;;;;;;;;;;;;;;;5035273;28;2043;-48
2022/11/12 02:16:42;;;;;;;;;;;;;;;;;;5034706;28;1941;-49
2022/11/12 02:19:29;;;;;;;;;;;;;;;;;;5035116;28;1904;-49
2022/11/12 02:22:15;;;;;;;;;;;;;;;;;;5035018;28;2117;-48
2022/11/12 02:25:00;;;;;;;;;;;;;;;;;;5047762;28;1844;-47
2022/11/12 02:27:50;;;;;;;;;;;;;;;;;;5034621;28;2237;-47
2022/11/12 02:30:36;;;;;;;;;;;;;;;;;;5034553;28;2052;-49
2022/11/12 02:33:22;;;;;;;;;;;;;;;;;;5034500;28;1822;-48
2022/11/12 02:36:08;;;;;;;;;;;;;;;;;;5034560;28;2036;-47
2022/11/12 02:38:54;;;;;;;;;;;;;;;;;;5034456;28;1877;-49
2022/11/12 02:41:40;;;;;;;;;;;;;;;;;;5034285;28;1903;-46
2022/11/12 02:44:27;;;;;;;;;;;;;;;;;;5046305;28;1903;-48
2022/11/12 02:47:13;;;;;;;;;;;;;;;;;;5054160;28;1979;-48
2022/11/12 02:49:58;;;;;;;;;;;;;;;;;;5054125;28;1981;-48
2022/11/12 02:52:45;;;;;;;;;;;;;;;;;;5053937;28;1994;-52
2022/11/12 02:55:31;;;;;;;;;;;;;;;;;;5054470;28;1944;-51
2022/11/12 02:58:17;;;;;;;;;;;;;;;;;;5053779;28;2343;-47
2022/11/12 03:01:03;;;;;;;;;;;;;;;;;;5054149;28;2055;-47
2022/11/12 03:03:49;;;;;;;;;;;;;;;;;;5053984;28;1951;-50
2022/11/12 03:06:35;;;;;;;;;;;;;;;;;;5053759;28;2053;-51
2022/11/12 03:09:21;;;;;;;;;;;;;;;;;;5053817;28;2155;-49
2022/11/12 03:12:06;;;;;;;;;;;;;;;;;;5053873;28;1857;-46
2022/11/12 03:14:52;;;;;;;;;;;;;;;;;;5053530;28;1971;-47
2022/11/12 03:17:38;;;;;;;;;;;;;;;;;;5053936;28;1972;-49
2022/11/12 03:20:24;;;;;;;;;;;;;;;;;;5053698;28;1961;-52
2022/11/12 03:23:10;;;;;;;;;;;;;;;;;;5053678;28;1993;-50
2022/11/12 03:25:56;;;;;;;;;;;;;;;;;;5053530;28;2053;-50
2022/11/12 03:28:41;;;;;;;;;;;;;;;;;;5053593;28;2131;-47
2022/11/12 03:31:27;;;;;;;;;;;;;;;;;;5053506;28;2377;-46
2022/11/12 03:34:12;;;;;;;;;;;;;;;;;;5053451;28;1981;-46
2022/11/12 03:36:58;;;;;;;;;;;;;;;;;;5053673;28;1898;-47
2022/11/12 03:39:44;;;;;;;;;;;;;;;;;;5053128;28;1854;-50
2022/11/12 03:42:29;;;;;;;;;;;;;;;;;;5053382;28;1911;-51
2022/11/12 03:45:16;;;;;;;;;;;;;;;;;;5053200;28;1959;-47
2022/11/12 03:48:02;;;;;;;;;;;;;;;;;;5052394;28;2060;-47
2022/11/12 03:50:47;;;;;;;;;;;;;;;;;;5052927;28;1975;-46
2022/11/12 03:53:33;;;;;;;;;;;;;;;;;;5053034;28;1878;-47
2022/11/12 03:56:19;;;;;;;;;;;;;;;;;;5052875;28;1924;-46
2022/11/12 03:59:05;;;;;;;;;;;;;;;;;;5052698;28;1991;-49
2022/11/12 04:01:51;;;;;;;;;;;;;;;;;;5052735;28;2099;-47
2022/11/12 04:10:46;;;;;;;;;;;;;;;;;;5052749;28;2287;-49
2022/11/12 04:13:32;;;;;;;;;;;;;;;;;;5052730;28;1877;-47
2022/11/12 04:22:30;;;;;;;;;;;;;;;;;;5052668;28;2067;-45
2022/11/12 04:28:19;;;;;;;;;;;;;;;;;;5052283;28;1988;-51
2022/11/12 04:31:05;;;;;;;;;;;;;;;;;;5052267;28;2003;-51
2022/11/12 04:33:51;;;;;;;;;;;;;;;;;;5051929;28;1858;-51
2022/11/12 04:36:37;;;;;;;;;;;;;;;;;;5052063;28;1975;-47
2022/11/12 04:39:22;;;;;;;;;;;;;;;;;;5052172;28;1919;-51
2022/11/12 04:45:13;;;;;;;;;;;;;;;;;;5052174;28;2156;-46
2022/11/12 04:47:58;;;;;;;;;;;;;;;;;;5052074;28;2101;-45
2022/11/12 04:50:46;;;;;;;;;;;;;;;;;;5051893;28;1968;-46
2022/11/12 04:53:31;;;;;;;;;;;;;;;;;;5052154;28;2111;-47
2022/11/12 04:56:17;;;;;;;;;;;;;;;;;;5051863;28;1978;-47
2022/11/12 04:59:02;;;;;;;;;;;;;;;;;;5051848;28;1905;-46
2022/11/12 05:01:48;;;;;;;;;;;;;;;;;;5051814;28;2063;-45
2022/11/12 05:04:33;;;;;;;;;;;;;;;;;;5051753;28;1854;-45
2022/11/12 05:07:19;;;;;;;;;;;;;;;;;;5051715;28;1998;-47
2022/11/12 05:10:06;;;;;;;;;;;;;;;;;;5051674;28;2253;-49
2022/11/12 05:12:51;;;;;;;;;;;;;;;;;;5051649;28;2057;-48
2022/11/12 05:15:36;;;;;;;;;;;;;;;;;;5051639;28;2114;-47
2022/11/12 05:18:22;;;;;;;;;;;;;;;;;;5051479;28;1912;-45
2022/11/12 05:24:12;;;;;;;;;;;;;;;;;;5051465;28;1846;-46
2022/11/12 05:27:19;;;;;;;;;;;;;;;;;;5051402;28;1960;-48
2022/11/12 05:30:05;;;;;;;;;;;;;;;;;;5051162;28;1950;-47
2022/11/12 05:32:51;;;;;;;;;;;;;;;;;;5051378;28;2003;-45
2022/11/12 05:35:36;;;;;;;;;;;;;;;;;;5051257;28;1874;-49
2022/11/12 05:38:22;;;;;;;;;;;;;;;;;;5050323;28;2132;-45
2022/11/12 05:41:08;;;;;;;;;;;;;;;;;;5051089;28;1833;-46
2022/11/12 05:43:54;;;;;;;;;;;;;;;;;;5051118;28;1875;-48
2022/11/12 05:46:40;;;;;;;;;;;;;;;;;;5051164;28;1965;-46
2022/11/12 05:49:26;;;;;;;;;;;;;;;;;;5050876;28;1991;-46
2022/11/12 05:52:11;;;;;;;;;;;;;;;;;;5051187;28;2010;-46
2022/11/12 05:54:57;;;;;;;;;;;;;;;;;;5051149;28;1968;-45
2022/11/12 05:57:43;;;;;;;;;;;;;;;;;;5050764;28;2109;-49
2022/11/12 06:00:28;;;;;;;;;;;;;;;;;;5051234;28;1972;-46
2022/11/12 06:03:14;;;;;;;;;;;;;;;;;;5051135;28;2065;-45
2022/11/12 06:06:00;;;;;;;;;;;;;;;;;;5051021;28;1981;-49
2022/11/12 06:08:46;;;;;;;;;;;;;;;;;;5050799;28;2074;-46
2022/11/12 06:11:34;;;;;;;;;;;;;;;;;;5051234;28;2125;-46
2022/11/12 06:14:19;;;;;;;;;;;;;;;;;;5050673;28;1917;-48
2022/11/12 06:17:05;;;;;;;;;;;;;;;;;;5050808;28;2037;-48
2022/11/12 06:19:51;;;;;;;;;;;;;;;;;;5050532;28;2065;-46
2022/11/12 06:22:36;;;;;;;;;;;;;;;;;;5050828;28;2056;-46
2022/11/12 06:25:22;;;;;;;;;;;;;;;;;;5050922;28;1913;-48
2022/11/12 06:28:07;;;;;;;;;;;;;;;;;;5050769;28;2060;-46
2022/11/12 06:30:53;;;;;;;;;;;;;;;;;;5050581;28;2067;-48
2022/11/12 06:33:39;;;;;;;;;;;;;;;;;;5050667;28;1992;-45
2022/11/12 06:36:24;;;;;;;;;;;;;;;;;;5050851;28;1992;-46
2022/11/12 06:39:10;;;;;;;;;;;;;;;;;;5050550;28;2039;-48
2022/11/12 06:41:56;;;;;;;;;;;;;;;;;;5050421;28;1970;-51
2022/11/12 06:44:41;;;;;;;;;;;;;;;;;;5036866;28;2052;-49
2022/11/12 06:47:27;;;;;;;;;;;;;;;;;;5031005;28;2146;-46
2022/11/12 06:50:12;;;;;;;;;;;;;;;;;;5031448;28;1906;-47
2022/11/12 06:52:58;;;;;;;;;;;;;;;;;;5033812;28;1938;-46
2022/11/12 06:55:44;;;;;;;;;;;;;;;;;;5034121;28;1897;-47
2022/11/12 06:58:29;;;;;;;;;;;;;;;;;;5034331;28;1996;-48
2022/11/12 07:01:16;;;;;;;;;;;;;;;;;;5034355;28;1983;-47
2022/11/12 07:04:02;;;;;;;;;;;;;;;;;;5033798;28;1948;-46
2022/11/12 07:06:47;;;;;;;;;;;;;;;;;;5034023;28;2048;-49
2022/11/12 07:09:34;;;;;;;;;;;;;;;;;;5034393;28;2018;-46
2022/11/12 07:12:19;;;;;;;;;;;;;;;;;;5034019;28;1948;-45
2022/11/12 07:15:05;;;;;;;;;;;;;;;;;;5033644;28;2137;-46
2022/11/12 07:17:51;;;;;;;;;;;;;;;;;;5033640;28;2047;-47
2022/11/12 07:20:36;;;;;;;;;;;;;;;;;;5033651;28;1913;-45
2022/11/12 07:23:22;;;;;;;;;;;;;;;;;;5033358;28;1933;-45
2022/11/12 07:26:28;;;;;;;;;;;;;;;;;;5033706;28;2059;-47
2022/11/12 07:29:13;;;;;;;;;;;;;;;;;;5033322;28;1800;-43
2022/11/12 07:32:14;;;;;;;;;;;;;;;;;;5033456;28;1972;-45
2022/11/12 07:35:00;;;;;;;;;;;;;;;;;;5033675;28;1851;-47
2022/11/12 07:37:46;;;;;;;;;;;;;;;;;;5033324;28;2073;-47
2022/11/12 07:40:32;;;;;;;;;;;;;;;;;;5033719;28;2067;-47
2022/11/12 07:43:17;;;;;;;;;;;;;;;;;;5035520;28;2096;-45
2022/11/12 07:46:10;;;;;;;;;;;;;;;;;;5053395;28;2035;-45
2022/11/12 07:48:56;;;;;;;;;;;;;;;;;;5053055;28;2034;-44
2022/11/12 07:51:42;;;;;;;;;;;;;;;;;;5052987;28;1999;-47
2022/11/12 07:54:28;;;;;;;;;;;;;;;;;;5052922;28;2092;-46
2022/11/12 07:57:13;;;;;;;;;;;;;;;;;;5053195;28;1982;-45
2022/11/12 07:59:59;;;;;;;;;;;;;;;;;;5052887;28;1973;-45
2022/11/12 08:02:44;;;;;;;;;;;;;;;;;;5051985;28;1814;-46
2022/11/12 08:05:30;;;;;;;;;;;;;;;;;;5053031;28;1911;-47
2022/11/12 08:08:15;;;;;;;;;;;;;;;;;;5052833;28;1925;-49
2022/11/12 08:11:01;;;;;;;;;;;;;;;;;;5052786;28;2127;-51
2022/11/12 08:13:46;;;;;;;;;;;;;;;;;;5052337;28;2213;-49
2022/11/12 08:16:32;;;;;;;;;;;;;;;;;;5052972;28;1923;-50
2022/11/12 08:19:18;;;;;;;;;;;;;;;;;;5052603;28;1804;-48
2022/11/12 08:22:04;;;;;;;;;;;;;;;;;;5052671;28;2073;-47
2022/11/12 08:24:50;;;;;;;;;;;;;;;;;;5052598;28;2120;-51
2022/11/12 08:27:38;;;;;;;;;;;;;;;;;;5052437;28;2027;-50
2022/11/12 08:30:24;;;;;;;;;;;;;;;;;;5052510;28;1889;-50
2022/11/12 08:33:10;;;;;;;;;;;;;;;;;;5052422;28;1891;-47
2022/11/12 08:35:56;;;;;;;;;;;;;;;;;;5052124;28;1957;-46
2022/11/12 08:38:42;;;;;;;;;;;;;;;;;;5052229;28;2183;-48
2022/11/12 08:41:28;;;;;;;;;;;;;;;;;;5052132;28;1963;-50
2022/11/12 08:44:15;;;;;;;;;;;;;;;;;;5052071;28;1963;-48
2022/11/12 08:47:01;;;;;;;;;;;;;;;;;;5052542;28;1983;-47
2022/11/12 08:49:48;;;;;;;;;;;;;;;;;;5050565;28;1957;-46
2022/11/12 08:52:33;;;;;;;;;;;;;;;;;;5050267;28;1994;-48
2022/11/12 08:55:19;;;;;;;;;;;;;;;;;;5051458;28;1947;-48
2022/11/12 08:58:05;;;;;;;;;;;;;;;;;;5051218;28;2171;-48
2022/11/12 09:00:51;;;;;;;;;;;;;;;;;;5050283;28;2069;-49
2022/11/12 09:03:37;;;;;;;;;;;;;;;;;;5051974;28;2080;-49
2022/11/12 09:06:23;;;;;;;;;;;;;;;;;;5051897;28;2116;-51
2022/11/12 09:09:08;;;;;;;;;;;;;;;;;;5051376;28;2056;-48
2022/11/12 09:11:54;;;;;;;;;;;;;;;;;;5051118;28;2114;-48
2022/11/12 09:14:39;;;;;;;;;;;;;;;;;;5051604;28;1851;-51
2022/11/12 09:17:27;;;;;;;;;;;;;;;;;;5051526;28;1959;-47
2022/11/12 09:20:16;;;;;;;;;;;;;;;;;;5050134;28;1978;-50
2022/11/12 09:23:03;;;;;;;;;;;;;;;;;;5051631;28;1868;-49
2022/11/12 09:25:49;;;;;;;;;;;;;;;;;;5051244;28;1980;-49
2022/11/12 09:28:34;;;;;;;;;;;;;;;;;;5051525;28;1977;-48
2022/11/12 09:31:20;;;;;;;;;;;;;;;;;;5051058;28;2002;-46
2022/11/12 09:34:06;;;;;;;;;;;;;;;;;;5036596;28;1994;-48
2022/11/12 09:36:54;;;;;;;;;;;;;;;;;;5031862;28;1969;-49
2022/11/12 09:39:41;;;;;;;;;;;;;;;;;;5031211;28;1922;-53
2022/11/12 09:42:26;;;;;;;;;;;;;;;;;;5031210;28;1929;-49
2022/11/12 09:45:21;;;;;;;;;;;;;;;;;;5049055;28;2020;-49
2022/11/12 09:48:08;;;;;;;;;;;;;;;;;;5051019;28;2040;-48
2022/11/12 09:51:05;;;;;;;;;;;;;;;;;;5050902;28;1957;-48
2022/11/12 09:53:58;;;;;;;;;;;;;;;;;;5050845;28;1997;-48
2022/11/12 09:56:46;;;;;;;;;;;;;;;;;;5050920;28;2004;-52
2022/11/12 09:59:32;;;;;;;;;;;;;;;;;;5050841;28;1253;-51
2022/11/12 10:02:27;;;;;;;;;;;;;;;;;;5050102;28;1968;-47
2022/11/12 10:05:27;;;;;;;;;;;;;;;;;;5049917;28;2136;-50
2022/11/12 10:08:19;;;;;;;;;;;;;;;;;;5050835;28;2160;-50
2022/11/12 10:11:05;;;;;;;;;;;;;;;;;;5051048;28;1965;-50
2022/11/12 10:13:50;;;;;;;;;;;;;;;;;;5050668;28;2019;-49
2022/11/12 10:16:44;;;;;;;;;;;;;;;;;;5050620;28;1917;-50
2022/11/12 10:19:30;;;;;;;;;;;;;;;;;;5050814;28;1842;-47
2022/11/12 10:22:25;;;;;;;;;;;;;;;;;;5050805;28;1931;-50
2022/11/12 10:25:13;;;;;;;;;;;;;;;;;;5052811;28;2175;-49
2022/11/12 10:28:00;;;;;;;;;;;;;;;;;;5054558;28;1791;-49
2022/11/12 10:30:46;;;;;;;;;;;;;;;;;;5054443;28;1843;-49
2022/11/12 10:33:32;;;;;;;;;;;;;;;;;;5054725;28;2120;-50
2022/11/12 10:36:21;;;;;;;;;;;;;;;;;;5054680;28;2033;-48
2022/11/12 10:39:07;;;;;;;;;;;;;;;;;;5054541;28;1972;-48
2022/11/12 10:42:13;;;;;;;;;;;;;;;;;;5054116;28;2195;-46
2022/11/12 10:45:14;;;;;;;;;;;;;;;;;;5038170;28;1960;-49
2022/11/12 10:48:00;;;;;;;;;;;;;;;;;;5034173;28;2004;-49
2022/11/12 10:50:46;;;;;;;;;;;;;;;;;;5034466;28;2093;-49
2022/11/12 10:53:32;;;;;;;;;;;;;;;;;;5034371;28;2222;-47
2022/11/12 10:56:25;;;;;;;;;;;;;;;;;;5034471;28;2043;-46
2022/11/12 10:59:16;;;;;;;;;;;;;;;;;;5034123;28;2043;-49
2022/11/12 11:02:02;;;;;;;;;;;;;;;;;;5034231;28;1974;-47
2022/11/12 11:04:48;;;;;;;;;;;;;;;;;;5034191;28;1972;-50
2022/11/12 11:07:34;;;;;;;;;;;;;;;;;;5034313;28;1956;-48
2022/11/12 11:10:25;;;;;;;;;;;;;;;;;;5033923;28;1912;-48
2022/11/12 11:13:13;;;;;;;;;;;;;;;;;;5033797;28;1966;-48
2022/11/12 11:16:00;;;;;;;;;;;;;;;;;;5033988;28;2045;-48
2022/11/12 11:19:06;;;;;;;;;;;;;;;;;;5032806;28;1963;-51
2022/11/12 11:22:05;;;;;;;;;;;;;;;;;;5033714;28;2066;-49
2022/11/12 11:24:51;;;;;;;;;;;;;;;;;;5033633;28;1986;-49
2022/11/12 11:27:55;;;;;;;;;;;;;;;;;;5033721;28;1956;-51
2022/11/12 11:30:49;;;;;;;;;;;;;;;;;;5033727;28;2162;-52
2022/11/12 11:34:02;;;;;;;;;;;;;;;;;;5033586;28;1993;-46
2022/11/12 11:37:16;;;;;;;;;;;;;;;;;;5033334;28;1947;-49
2022/11/12 11:40:13;;;;;;;;;;;;;;;;;;5033588;28;1896;-49
2022/11/12 11:43:22;;;;;;;;;;;;;;;;;;5033515;28;2066;-48
2022/11/12 11:46:11;;;;;;;;;;;;;;;;;;5033208;28;1983;-50
2022/11/12 11:49:14;;;;;;;;;;;;;;;;;;5033210;28;2076;-51
2022/11/12 11:52:09;;;;;;;;;;;;;;;;;;5032765;28;1939;-49
2022/11/12 11:55:03;;;;;;;;;;;;;;;;;;5033181;28;2304;-47
2022/11/12 11:58:08;;;;;;;;;;;;;;;;;;5033637;28;2054;-48
2022/11/12 12:00:56;;;;;;;;;;;;;;;;;;5032957;28;2112;-46
2022/11/12 12:03:45;;;;;;;;;;;;;;;;;;5032906;28;2103;-49
2022/11/12 12:06:35;;;;;;;;;;;;;;;;;;5032767;28;1971;-51
2022/11/12 12:09:21;;;;;;;;;;;;;;;;;;5032929;28;2009;-50
2022/11/12 12:12:23;;;;;;;;;;;;;;;;;;5032813;28;2058;-51
2022/11/12 12:15:09;;;;;;;;;;;;;;;;;;5036355;28;2040;-47
2022/11/12 12:18:15;;;;;;;;;;;;;;;;;;5052640;28;1850;-47
2022/11/12 12:21:05;;;;;;;;;;;;;;;;;;5052322;28;2043;-49
2022/11/12 12:23:59;;;;;;;;;;;;;;;;;;5052513;28;1906;-46
2022/11/12 12:26:54;;;;;;;;;;;;;;;;;;5052462;28;2027;-48
2022/11/12 12:29:52;;;;;;;;;;;;;;;;;;5052467;28;1952;-48
2022/11/12 12:33:15;;;;;;;;;;;;;;;;;;5052010;28;2083;-46
2022/11/12 12:36:42;;;;;;;;;;;;;;;;;;5052236;28;2088;-52
2022/11/12 12:40:08;;;;;;;;;;;;;;;;;;5051043;28;1501;-46
2022/11/12 12:43:34;;;;;;;;;;;;;;;;;;5051974;28;2029;-48
2022/11/12 12:47:05;;;;;;;;;;;;;;;;;;5051715;28;2005;-50
2022/11/12 12:50:25;;;;;;;;;;;;;;;;;;5051990;28;1989;-49
2022/11/12 12:53:46;;;;;;;;;;;;;;;;;;5052053;28;1988;-51
2022/11/12 12:57:02;;;;;;;;;;;;;;;;;;5051818;28;2057;-49
2022/11/12 13:00:43;;;;;;;;;;;;;;;;;;5050813;28;2004;-48
2022/11/12 13:04:10;;;;;;;;;;;;;;;;;;5051539;28;1974;-49
2022/11/12 13:07:43;;;;;;;;;;;;;;;;;;5051744;28;1930;-49
2022/11/12 13:11:01;;;;;;;;;;;;;;;;;;5051524;28;1948;-51
2022/11/12 13:18:00;;;;;;;;;;;;;;;;;;5051611;28;1942;-52
2022/11/12 13:21:25;;;;;;;;;;;;;;;;;;5051503;28;1898;-48
2022/11/12 13:24:53;;;;;;;;;;;;;;;;;;5051792;28;1976;-50
2022/11/12 13:27:39;;;;;;;;;;;;;;;;;;5051252;28;2045;-52
2022/11/12 13:30:25;;;;;;;;;;;;;;;;;;5051162;28;1839;-47
2022/11/12 13:33:23;;;;;;;;;;;;;;;;;;5050977;28;1918;-49
2022/11/12 13:36:22;;;;;;;;;;;;;;;;;;5051050;28;2282;-48
2022/11/12 13:39:14;;;;;;;;;;;;;;;;;;5051224;28;1906;-49
2022/11/12 13:45:09;;;;;;;;;;;;;;;;;;5051428;28;2105;-47
2022/11/12 13:47:56;;;;;;;;;;;;;;;;;;5050820;28;1841;-48
2022/11/12 13:50:48;;;;;;;;;;;;;;;;;;5051415;28;2042;-50
2022/11/12 13:53:33;;;;;;;;;;;;;;;;;;5050861;28;2164;-51
2022/11/12 13:56:27;;;;;;;;;;;;;;;;;;5051052;28;1924;-46
2022/11/12 13:59:13;;;;;;;;;;;;;;;;;;5051233;28;2042;-48
2022/11/12 14:02:02;;;;;;;;;;;;;;;;;;5054943;28;1956;-47
2022/11/12 14:04:48;;;;;;;;;;;;;;;;;;5055014;28;2001;-47
2022/11/12 14:07:44;;;;;;;;;;;;;;;;;;5054915;28;2084;-45
2022/11/12 14:10:34;;;;;;;;;;;;;;;;;;5054890;28;2025;-49
2022/11/12 14:13:38;;;;;;;;;;;;;;;;;;5055255;28;2045;-48
2022/11/12 14:16:39;;;;;;;;;;;;;;;;;;5054877;28;2060;-49
2022/11/12 14:19:42;;;;;;;;;;;;;;;;;;5054489;28;1848;-48
2022/11/12 14:22:35;;;;;;;;;;;;;;;;;;5054583;28;1886;-48
2022/11/12 14:25:22;;;;;;;;;;;;;;;;;;5054810;28;1877;-49
2022/11/12 14:28:22;;;;;;;;;;;;;;;;;;5054692;28;2047;-47
2022/11/12 14:31:14;;;;;;;;;;;;;;;;;;5054731;28;1904;-49
2022/11/12 14:34:19;;;;;;;;;;;;;;;;;;5054279;28;2057;-48
2022/11/12 14:37:11;;;;;;;;;;;;;;;;;;5054501;28;1921;-48
2022/11/12 14:39:57;;;;;;;;;;;;;;;;;;5054343;28;1941;-47
2022/11/12 14:42:43;;;;;;;;;;;;;;;;;;5054115;28;1788;-48
2022/11/12 14:45:28;;;;;;;;;;;;;;;;;;5034326;28;2039;-49
2022/11/12 14:48:19;;;;;;;;;;;;;;;;;;5034782;28;2005;-48
2022/11/12 14:51:08;;;;;;;;;;;;;;;;;;5034121;28;1985;-52
2022/11/12 14:54:05;;;;;;;;;;;;;;;;;;5033755;28;2015;-48
2022/11/12 14:56:51;;;;;;;;;;;;;;;;;;5051625;28;1855;-46
2022/11/12 14:59:36;;;;;;;;;;;;;;;;;;5051995;28;1847;-50
2022/11/12 15:02:27;;;;;;;;;;;;;;;;;;5051728;28;1912;-47
2022/11/12 15:05:27;;;;;;;;;;;;;;;;;;5052006;28;1860;-48
2022/11/12 15:08:26;;;;;;;;;;;;;;;;;;5051930;28;1854;-48
2022/11/12 15:11:14;;;;;;;;;;;;;;;;;;5052541;28;2024;-48
2022/11/12 15:14:09;;;;;;;;;;;;;;;;;;5053662;28;1956;-49
2022/11/12 15:16:56;;;;;;;;;;;;;;;;;;5053768;28;2063;-50
2022/11/12 15:19:41;;;;;;;;;;;;;;;;;;5053256;28;1926;-50
2022/11/12 15:22:28;;;;;;;;;;;;;;;;;;5053460;28;1929;-48
2022/11/12 15:25:17;;;;;;;;;;;;;;;;;;5053599;28;2003;-51
2022/11/12 15:28:19;;;;;;;;;;;;;;;;;;5053461;28;2166;-49
2022/11/12 15:31:07;;;;;;;;;;;;;;;;;;5053404;28;2322;-50
2022/11/12 15:33:55;;;;;;;;;;;;;;;;;;5053409;28;1973;-49
2022/11/12 15:36:41;;;;;;;;;;;;;;;;;;5053680;28;1874;-50
2022/11/12 15:39:27;;;;;;;;;;;;;;;;;;5053539;28;2141;-48
2022/11/12 15:42:16;;;;;;;;;;;;;;;;;;5053265;28;1995;-46
2022/11/12 15:45:04;;;;;;;;;;;;;;;;;;5053147;28;1986;-48
2022/11/12 15:47:49;;;;;;;;;;;;;;;;;;5053250;28;2260;-48
2022/11/12 15:50:35;;;;;;;;;;;;;;;;;;5053162;28;1976;-51
2022/11/12 15:53:21;;;;;;;;;;;;;;;;;;5052892;28;1914;-48
2022/11/12 15:56:16;;;;;;;;;;;;;;;;;;5053034;28;1877;-50
2022/11/12 15:59:02;;;;;;;;;;;;;;;;;;5053000;28;1997;-50
2022/11/12 16:01:48;;;;;;;;;;;;;;;;;;5052832;28;1922;-50
2022/11/12 16:04:34;;;;;;;;;;;;;;;;;;5052673;28;1965;-48
2022/11/12 16:07:20;;;;;;;;;;;;;;;;;;5052998;28;1913;-46
2022/11/12 16:10:06;;;;;;;;;;;;;;;;;;5052864;28;1832;-48
2022/11/12 16:12:55;;;;;;;;;;;;;;;;;;5052822;28;2025;-50
2022/11/12 16:15:41;;;;;;;;;;;;;;;;;;5053084;28;2176;-52
2022/11/12 16:18:28;;;;;;;;;;;;;;;;;;5052576;28;1843;-48
2022/11/12 16:21:13;;;;;;;;;;;;;;;;;;5052884;28;2165;-49
2022/11/12 16:24:04;;;;;;;;;;;;;;;;;;5052115;28;2033;-49
2022/11/12 16:26:51;;;;;;;;;;;;;;;;;;5052532;28;2081;-51
2022/11/12 16:29:36;;;;;;;;;;;;;;;;;;5052312;28;1963;-50
2022/11/12 16:32:22;;;;;;;;;;;;;;;;;;5052097;28;2003;-48
2022/11/12 16:35:08;;;;;;;;;;;;;;;;;;5052173;28;2068;-49
2022/11/12 16:37:54;;;;;;;;;;;;;;;;;;5052088;28;2225;-48
2022/11/12 16:40:40;;;;;;;;;;;;;;;;;;5052147;28;1889;-48
2022/11/12 16:43:27;;;;;;;;;;;;;;;;;;5052078;28;1988;-53
2022/11/12 16:46:39;;;;;;;;;;;;;;;;;;5052319;28;1825;-49
2022/11/12 16:49:25;;;;;;;;;;;;;;;;;;5052219;28;1962;-51
2022/11/12 16:52:12;;;;;;;;;;;;;;;;;;5051981;28;1993;-50
2022/11/12 16:54:58;;;;;;;;;;;;;;;;;;5050911;28;2391;-49
2022/11/12 16:57:49;;;;;;;;;;;;;;;;;;5051841;28;1884;-50
2022/11/12 17:00:35;;;;;;;;;;;;;;;;;;5051761;28;2388;-52
2022/11/12 17:03:20;;;;;;;;;;;;;;;;;;5051648;28;2036;-50
2022/11/12 17:06:06;;;;;;;;;;;;;;;;;;5051438;28;2117;-50
2022/11/12 17:08:53;;;;;;;;;;;;;;;;;;5051401;28;2124;-47
2022/11/12 17:11:39;;;;;;;;;;;;;;;;;;5051400;28;2119;-49
2022/11/12 17:14:25;;;;;;;;;;;;;;;;;;5051596;28;1966;-49
2022/11/12 17:17:13;;;;;;;;;;;;;;;;;;5051651;28;1878;-49
2022/11/12 17:19:58;;;;;;;;;;;;;;;;;;5051449;28;1782;-50
2022/11/12 17:22:44;;;;;;;;;;;;;;;;;;5051645;28;2020;-49
2022/11/12 17:25:30;;;;;;;;;;;;;;;;;;5051292;28;1679;-52
2022/11/12 17:28:16;;;;;;;;;;;;;;;;;;5051498;28;2059;-49
2022/11/12 17:31:03;;;;;;;;;;;;;;;;;;5051247;28;2011;-46
2022/11/12 17:33:50;;;;;;;;;;;;;;;;;;5051261;28;1902;-49
2022/11/12 17:36:35;;;;;;;;;;;;;;;;;;5051250;28;1945;-51
2022/11/12 17:39:28;;;;;;;;;;;;;;;;;;5051145;28;1897;-50
2022/11/12 17:42:14;;;;;;;;;;;;;;;;;;5051172;28;1978;-49
2022/11/12 17:44:59;;;;;;;;;;;;;;;;;;5051218;28;1992;-50
2022/11/12 17:47:45;;;;;;;;;;;;;;;;;;5051062;28;1937;-51
2022/11/12 17:50:31;;;;;;;;;;;;;;;;;;5051072;28;1952;-51
2022/11/12 17:53:17;;;;;;;;;;;;;;;;;;5051201;28;2048;-53
2022/11/12 17:56:04;;;;;;;;;;;;;;;;;;5051229;28;1943;-51
2022/11/12 17:58:51;;;;;;;;;;;;;;;;;;5051152;28;1768;-48
2022/11/12 18:01:37;;;;;;;;;;;;;;;;;;5050960;28;1983;-48
2022/11/12 18:04:23;;;;;;;;;;;;;;;;;;5050991;28;1774;-52
2022/11/12 18:07:11;;;;;;;;;;;;;;;;;;5050825;28;1957;-50
2022/11/12 18:09:57;;;;;;;;;;;;;;;;;;5051062;28;1829;-47
2022/11/12 18:12:43;;;;;;;;;;;;;;;;;;5050830;28;1907;-49
2022/11/12 18:15:32;;;;;;;;;;;;;;;;;;5050753;28;1959;-51
2022/11/12 18:18:18;;;;;;;;;;;;;;;;;;5051227;28;2087;-46
2022/11/12 18:21:04;;;;;;;;;;;;;;;;;;5050536;28;1934;-47
2022/11/12 18:23:50;;;;;;;;;;;;;;;;;;5050986;28;2133;-49
2022/11/12 18:26:36;;;;;;;;;;;;;;;;;;5050857;28;1962;-52
2022/11/12 18:29:22;;;;;;;;;;;;;;;;;;5051082;28;1960;-48
2022/11/12 18:32:08;;;;;;;;;;;;;;;;;;5050765;28;2053;-49
2022/11/12 18:34:53;;;;;;;;;;;;;;;;;;5050720;28;2115;-49
2022/11/12 18:37:39;;;;;;;;;;;;;;;;;;5050791;28;1835;-49
2022/11/12 18:40:25;;;;;;;;;;;;;;;;;;5050422;28;1864;-50
2022/11/12 18:43:11;;;;;;;;;;;;;;;;;;5050623;28;2004;-48
2022/11/12 18:45:59;;;;;;;;;;;;;;;;;;5052421;28;1868;-48
2022/11/12 18:48:46;;;;;;;;;;;;;;;;;;5053919;28;2065;-47
2022/11/12 18:51:32;;;;;;;;;;;;;;;;;;5053828;28;2165;-50
2022/11/12 18:54:17;;;;;;;;;;;;;;;;;;5054462;28;1985;-48
2022/11/12 18:57:03;;;;;;;;;;;;;;;;;;5053885;28;1914;-49
2022/11/12 18:59:51;;;;;;;;;;;;;;;;;;5054218;28;2019;-52
2022/11/12 19:02:37;;;;;;;;;;;;;;;;;;5054097;28;1950;-48
2022/11/12 19:05:23;;;;;;;;;;;;;;;;;;5053448;28;1922;-53
2022/11/12 19:08:11;;;;;;;;;;;;;;;;;;5053993;28;2005;-49
2022/11/12 19:10:58;;;;;;;;;;;;;;;;;;5053831;28;2021;-50
2022/11/12 19:13:48;;;;;;;;;;;;;;;;;;5053511;28;1964;-49
2022/11/12 19:16:34;;;;;;;;;;;;;;;;;;5053856;28;2119;-50
2022/11/12 19:19:20;;;;;;;;;;;;;;;;;;5054022;28;1922;-48
2022/11/12 19:22:06;;;;;;;;;;;;;;;;;;5053451;28;2025;-52
2022/11/12 19:24:53;;;;;;;;;;;;;;;;;;5053660;28;1832;-49
2022/11/12 19:27:39;;;;;;;;;;;;;;;;;;5053630;28;2096;-48
2022/11/12 19:30:25;;;;;;;;;;;;;;;;;;5053700;28;1709;-49
2022/11/12 19:33:11;;;;;;;;;;;;;;;;;;5053310;28;2061;-49
2022/11/12 19:35:56;;;;;;;;;;;;;;;;;;5053520;28;2048;-49
2022/11/12 19:38:46;;;;;;;;;;;;;;;;;;5053576;28;1842;-50
2022/11/12 19:41:32;;;;;;;;;;;;;;;;;;5053016;28;2039;-50
2022/11/12 19:44:20;;;;;;;;;;;;;;;;;;5053169;28;2130;-50
2022/11/12 19:47:06;;;;;;;;;;;;;;;;;;5053068;28;1953;-48
2022/11/12 19:49:51;;;;;;;;;;;;;;;;;;5053401;28;1968;-46
2022/11/12 19:52:37;;;;;;;;;;;;;;;;;;5053211;28;1862;-50
2022/11/12 19:55:24;;;;;;;;;;;;;;;;;;5052886;28;1988;-51
2022/11/12 19:58:09;;;;;;;;;;;;;;;;;;5051824;28;1934;-48
2022/11/12 20:01:01;;;;;;;;;;;;;;;;;;5052867;28;1854;-51
2022/11/12 20:03:47;;;;;;;;;;;;;;;;;;5052813;28;2039;-52
2022/11/12 20:06:35;;;;;;;;;;;;;;;;;;5053106;28;2016;-52